Terminal Aerodrome Forecast
Issued by NWS Wilmington, OH

Home | Current Version | Previous Version | Text Only | Print | Product List | Glossary On
Versions: 1 2 3 4 5 6 7 8 9 10 11 12 13 14 15 16 17 18 19 20 21 22 23 24 25 26 27
000
FTUS41 KILN 302000 AAA
TAFCMH
TAF AMD
KCMH 302056Z 3021/3118 32011KT P6SM VCSH SCT029 BKN035
     FM302200 33012KT P6SM BKN040
     FM310000 33004KT P6SM FEW040
     FM310800 VRB03KT P6SM SKC
     FM311300 21007KT P6SM SCT250=

USA.gov is the U.S. government's official web portal to all federal, state and local government web resources and services.